sensor_id;sensor_type;location;lat;lon;timestamp;P1;durP1;ratioP1;P2;durP2;ratioP2
64210;SDS011;50528;48.514;14.394;2023-08-01T00:00:19;9.00;;;2.80;;
64210;SDS011;50528;48.514;14.394;2023-08-01T00:01:13;5.00;;;2.80;;
64210;SDS011;50528;48.514;14.394;2023-08-01T00:01:47;5.00;;;2.90;;
64210;SDS011;50528;48.514;14.394;2023-08-01T00:02:21;3.70;;;2.60;;
64210;SDS011;50528;48.514;14.394;2023-08-01T00:02:54;5.20;;;3.40;;
64210;SDS011;50528;48.514;14.394;2023-08-01T00:03:28;5.60;;;3.20;;
64210;SDS011;50528;48.514;14.394;2023-08-01T00:04:01;4.80;;;2.70;;
64210;SDS011;50528;48.514;14.394;2023-08-01T00:04:35;7.10;;;3.20;;
64210;SDS011;50528;48.514;14.394;2023-08-01T00:05:09;5.20;;;2.90;;
64210;SDS011;50528;48.514;14.394;2023-08-01T00:05:42;5.20;;;2.80;;
64210;SDS011;50528;48.514;14.394;2023-08-01T00:06:17;4.90;;;3.00;;
64210;SDS011;50528;48.514;14.394;2023-08-01T00:06:52;4.70;;;2.90;;
64210;SDS011;50528;48.514;14.394;2023-08-01T00:07:26;6.40;;;2.80;;
64210;SDS011;50528;48.514;14.394;2023-08-01T00:08:00;4.70;;;2.90;;
64210;SDS011;50528;48.514;14.394;2023-08-01T00:08:35;5.00;;;2.90;;
64210;SDS011;50528;48.514;14.394;2023-08-01T00:09:08;10.50;;;2.90;;
64210;SDS011;50528;48.514;14.394;2023-08-01T00:09:42;4.80;;;2.90;;
64210;SDS011;50528;48.514;14.394;2023-08-01T00:10:15;4.70;;;3.00;;
64210;SDS011;50528;48.514;14.394;2023-08-01T00:10:49;6.70;;;3.20;;
64210;SDS011;50528;48.514;14.394;2023-08-01T00:11:22;5.70;;;3.00;;
64210;SDS011;50528;48.514;14.394;2023-08-01T00:11:56;5.80;;;2.90;;
64210;SDS011;50528;48.514;14.394;2023-08-01T00:12:29;5.40;;;3.00;;
64210;SDS011;50528;48.514;14.394;2023-08-01T00:13:02;6.40;;;3.10;;
64210;SDS011;50528;48.514;14.394;2023-08-01T00:13:36;6.00;;;3.10;;
64210;SDS011;50528;48.514;14.394;2023-08-01T00:14:09;4.60;;;2.90;;
64210;SDS011;50528;48.514;14.394;2023-08-01T00:14:42;5.10;;;3.40;;
64210;SDS011;50528;48.514;14.394;2023-08-01T00:15:16;5.90;;;2.80;;
64210;SDS011;50528;48.514;14.394;2023-08-01T00:15:49;7.20;;;3.20;;
64210;SDS011;50528;48.514;14.394;2023-08-01T00:16:39;7.10;;;2.80;;
64210;SDS011;50528;48.514;14.394;2023-08-01T00:17:12;5.30;;;2.70;;
64210;SDS011;50528;48.514;14.394;2023-08-01T00:17:46;5.30;;;2.70;;
64210;SDS011;50528;48.514;14.394;2023-08-01T00:18:23;5.90;;;3.00;;
64210;SDS011;50528;48.514;14.394;2023-08-01T00:19:00;4.20;;;3.00;;
64210;SDS011;50528;48.514;14.394;2023-08-01T00:19:36;5.20;;;2.60;;
64210;SDS011;50528;48.514;14.394;2023-08-01T00:20:10;5.80;;;2.80;;
64210;SDS011;50528;48.514;14.394;2023-08-01T00:20:43;5.50;;;2.50;;
64210;SDS011;50528;48.514;14.394;2023-08-01T00:21:16;6.60;;;2.70;;
64210;SDS011;50528;48.514;14.394;2023-08-01T00:21:50;4.70;;;2.90;;
64210;SDS011;50528;48.514;14.394;2023-08-01T00:22:23;4.90;;;2.80;;
64210;SDS011;50528;48.514;14.394;2023-08-01T00:22:57;4.30;;;2.60;;
64210;SDS011;50528;48.514;14.394;2023-08-01T00:23:30;5.30;;;2.70;;
64210;SDS011;50528;48.514;14.394;2023-08-01T00:24:04;4.40;;;2.60;;
64210;SDS011;50528;48.514;14.394;2023-08-01T00:24:39;3.60;;;2.50;;
64210;SDS011;50528;48.514;14.394;2023-08-01T00:25:13;7.30;;;2.70;;
64210;SDS011;50528;48.514;14.394;2023-08-01T00:25:46;4.50;;;2.50;;
64210;SDS011;50528;48.514;14.394;2023-08-01T00:26:24;6.80;;;2.60;;
64210;SDS011;50528;48.514;14.394;2023-08-01T00:26:57;5.30;;;2.50;;
64210;SDS011;50528;48.514;14.394;2023-08-01T00:27:31;5.90;;;2.90;;
64210;SDS011;50528;48.514;14.394;2023-08-01T00:28:12;4.60;;;2.70;;
64210;SDS011;50528;48.514;14.394;2023-08-01T00:28:46;4.70;;;2.70;;
64210;SDS011;50528;48.514;14.394;2023-08-01T00:29:19;6.70;;;2.40;;
64210;SDS011;50528;48.514;14.394;2023-08-01T00:29:55;4.40;;;2.70;;
64210;SDS011;50528;48.514;14.394;2023-08-01T00:30:28;7.10;;;3.00;;
64210;SDS011;50528;48.514;14.394;2023-08-01T00:31:10;5.10;;;2.60;;
64210;SDS011;50528;48.514;14.394;2023-08-01T00:31:43;4.30;;;2.70;;
64210;SDS011;50528;48.514;14.394;2023-08-01T00:32:17;6.80;;;2.90;;
64210;SDS011;50528;48.514;14.394;2023-08-01T00:32:50;5.20;;;2.90;;
64210;SDS011;50528;48.514;14.394;2023-08-01T00:33:24;6.90;;;3.20;;
64210;SDS011;50528;48.514;14.394;2023-08-01T00:33:57;5.00;;;3.20;;
64210;SDS011;50528;48.514;14.394;2023-08-01T00:34:31;6.00;;;2.80;;
64210;SDS011;50528;48.514;14.394;2023-08-01T00:35:04;4.60;;;2.70;;
64210;SDS011;50528;48.514;14.394;2023-08-01T00:35:38;5.00;;;2.80;;
64210;SDS011;50528;48.514;14.394;2023-08-01T00:36:12;4.30;;;2.90;;
64210;SDS011;50528;48.514;14.394;2023-08-01T00:36:45;4.60;;;3.00;;
64210;SDS011;50528;48.514;14.394;2023-08-01T00:37:18;5.70;;;2.60;;
64210;SDS011;50528;48.514;14.394;2023-08-01T00:37:52;4.80;;;2.60;;
64210;SDS011;50528;48.514;14.394;2023-08-01T00:38:25;3.60;;;2.80;;
64210;SDS011;50528;48.514;14.394;2023-08-01T00:38:59;4.30;;;2.60;;
64210;SDS011;50528;48.514;14.394;2023-08-01T00:39:33;5.10;;;2.80;;
64210;SDS011;50528;48.514;14.394;2023-08-01T00:40:06;4.70;;;2.60;;
64210;SDS011;50528;48.514;14.394;2023-08-01T00:40:40;4.30;;;2.50;;
64210;SDS011;50528;48.514;14.394;2023-08-01T00:41:14;4.20;;;2.50;;
64210;SDS011;50528;48.514;14.394;2023-08-01T00:41:47;3.90;;;2.60;;
64210;SDS011;50528;48.514;14.394;2023-08-01T00:42:20;5.00;;;2.60;;
64210;SDS011;50528;48.514;14.394;2023-08-01T00:42:54;4.50;;;2.80;;
64210;SDS011;50528;48.514;14.394;2023-08-01T00:43:29;5.00;;;2.70;;
64210;SDS011;50528;48.514;14.394;2023-08-01T00:44:02;4.80;;;2.80;;
64210;SDS011;50528;48.514;14.394;2023-08-01T00:44:36;5.30;;;2.90;;
64210;SDS011;50528;48.514;14.394;2023-08-01T00:45:09;4.60;;;2.70;;
64210;SDS011;50528;48.514;14.394;2023-08-01T00:45:43;4.90;;;2.40;;
64210;SDS011;50528;48.514;14.394;2023-08-01T00:46:19;4.80;;;2.60;;
64210;SDS011;50528;48.514;14.394;2023-08-01T00:46:52;4.70;;;2.80;;
64210;SDS011;50528;48.514;14.394;2023-08-01T00:47:25;4.00;;;2.70;;
64210;SDS011;50528;48.514;14.394;2023-08-01T00:47:59;5.30;;;2.80;;
64210;SDS011;50528;48.514;14.394;2023-08-01T00:48:33;5.70;;;2.90;;
64210;SDS011;50528;48.514;14.394;2023-08-01T00:49:06;5.80;;;2.70;;
64210;SDS011;50528;48.514;14.394;2023-08-01T00:49:41;5.70;;;2.80;;
64210;SDS011;50528;48.514;14.394;2023-08-01T00:50:15;4.80;;;3.00;;
64210;SDS011;50528;48.514;14.394;2023-08-01T00:50:48;4.50;;;2.50;;
64210;SDS011;50528;48.514;14.394;2023-08-01T00:51:22;5.60;;;2.90;;
64210;SDS011;50528;48.514;14.394;2023-08-01T00:51:55;5.70;;;2.60;;
64210;SDS011;50528;48.514;14.394;2023-08-01T00:52:28;4.30;;;2.40;;
64210;SDS011;50528;48.514;14.394;2023-08-01T00:53:02;5.50;;;2.60;;
64210;SDS011;50528;48.514;14.394;2023-08-01T00:53:35;4.50;;;2.60;;
64210;SDS011;50528;48.514;14.394;2023-08-01T00:54:09;6.00;;;2.90;;
64210;SDS011;50528;48.514;14.394;2023-08-01T00:54:42;5.00;;;2.80;;
64210;SDS011;50528;48.514;14.394;2023-08-01T00:55:16;5.70;;;2.80;;
64210;SDS011;50528;48.514;14.394;2023-08-01T00:55:50;5.80;;;2.90;;
64210;SDS011;50528;48.514;14.394;2023-08-01T00:56:26;5.70;;;2.90;;
64210;SDS011;50528;48.514;14.394;2023-08-01T00:56:59;4.40;;;2.50;;
64210;SDS011;50528;48.514;14.394;2023-08-01T00:57:34;7.80;;;2.70;;
64210;SDS011;50528;48.514;14.394;2023-08-01T00:58:07;3.80;;;2.50;;
64210;SDS011;50528;48.514;14.394;2023-08-01T00:58:40;4.40;;;2.80;;
64210;SDS011;50528;48.514;14.394;2023-08-01T00:59:14;6.40;;;2.60;;
64210;SDS011;50528;48.514;14.394;2023-08-01T00:59:48;5.50;;;2.80;;
64210;SDS011;50528;48.514;14.394;2023-08-01T01:00:22;5.00;;;2.70;;
64210;SDS011;50528;48.514;14.394;2023-08-01T01:00:56;4.80;;;2.70;;
64210;SDS011;50528;48.514;14.394;2023-08-01T01:01:31;4.50;;;2.50;;
64210;SDS011;50528;48.514;14.394;2023-08-01T01:02:04;4.90;;;2.70;;
64210;SDS011;50528;48.514;14.394;2023-08-01T01:02:38;6.00;;;2.70;;
64210;SDS011;50528;48.514;14.394;2023-08-01T01:03:12;5.30;;;2.60;;
64210;SDS011;50528;48.514;14.394;2023-08-01T01:03:47;4.90;;;2.80;;
64210;SDS011;50528;48.514;14.394;2023-08-01T01:04:21;5.90;;;2.70;;
64210;SDS011;50528;48.514;14.394;2023-08-01T01:04:55;6.10;;;2.70;;
64210;SDS011;50528;48.514;14.394;2023-08-01T01:05:31;4.50;;;2.70;;
64210;SDS011;50528;48.514;14.394;2023-08-01T01:06:21;6.20;;;2.90;;
64210;SDS011;50528;48.514;14.394;2023-08-01T01:07:17;4.30;;;2.70;;
64210;SDS011;50528;48.514;14.394;2023-08-01T01:07:52;5.70;;;3.00;;
64210;SDS011;50528;48.514;14.394;2023-08-01T01:08:25;5.50;;;3.00;;
64210;SDS011;50528;48.514;14.394;2023-08-01T01:08:59;5.50;;;3.10;;
64210;SDS011;50528;48.514;14.394;2023-08-01T01:09:32;5.20;;;3.20;;
64210;SDS011;50528;48.514;14.394;2023-08-01T01:10:06;5.10;;;2.90;;
64210;SDS011;50528;48.514;14.394;2023-08-01T01:10:39;6.70;;;2.90;;
64210;SDS011;50528;48.514;14.394;2023-08-01T01:11:13;6.70;;;3.20;;
64210;SDS011;50528;48.514;14.394;2023-08-01T01:11:47;4.10;;;3.00;;
64210;SDS011;50528;48.514;14.394;2023-08-01T01:12:20;9.00;;;3.30;;
64210;SDS011;50528;48.514;14.394;2023-08-01T01:12:53;7.80;;;3.50;;
64210;SDS011;50528;48.514;14.394;2023-08-01T01:13:28;4.80;;;2.90;;
64210;SDS011;50528;48.514;14.394;2023-08-01T01:14:04;4.90;;;2.90;;
64210;SDS011;50528;48.514;14.394;2023-08-01T01:14:37;4.50;;;2.70;;
64210;SDS011;50528;48.514;14.394;2023-08-01T01:15:11;8.10;;;3.10;;
64210;SDS011;50528;48.514;14.394;2023-08-01T01:15:44;3.90;;;2.70;;
64210;SDS011;50528;48.514;14.394;2023-08-01T01:16:17;4.90;;;2.80;;
64210;SDS011;50528;48.514;14.394;2023-08-01T01:16:50;4.20;;;2.80;;
64210;SDS011;50528;48.514;14.394;2023-08-01T01:17:25;5.60;;;2.80;;
64210;SDS011;50528;48.514;14.394;2023-08-01T01:17:58;4.80;;;3.10;;
64210;SDS011;50528;48.514;14.394;2023-08-01T01:18:32;6.80;;;2.80;;
64210;SDS011;50528;48.514;14.394;2023-08-01T01:19:07;4.50;;;3.00;;
64210;SDS011;50528;48.514;14.394;2023-08-01T01:19:42;5.70;;;2.70;;
64210;SDS011;50528;48.514;14.394;2023-08-01T01:20:20;5.10;;;2.70;;
64210;SDS011;50528;48.514;14.394;2023-08-01T01:20:56;5.80;;;2.80;;
64210;SDS011;50528;48.514;14.394;2023-08-01T01:22:35;6.10;;;2.70;;
64210;SDS011;50528;48.514;14.394;2023-08-01T01:23:12;5.90;;;3.00;;
64210;SDS011;50528;48.514;14.394;2023-08-01T01:23:45;5.10;;;2.80;;
64210;SDS011;50528;48.514;14.394;2023-08-01T01:24:20;8.40;;;3.10;;
64210;SDS011;50528;48.514;14.394;2023-08-01T01:24:55;4.20;;;2.90;;
64210;SDS011;50528;48.514;14.394;2023-08-01T01:25:32;4.60;;;3.00;;
64210;SDS011;50528;48.514;14.394;2023-08-01T01:26:07;4.00;;;2.80;;
64210;SDS011;50528;48.514;14.394;2023-08-01T01:26:41;4.60;;;2.90;;
64210;SDS011;50528;48.514;14.394;2023-08-01T01:27:16;4.20;;;3.00;;
64210;SDS011;50528;48.514;14.394;2023-08-01T01:27:51;4.40;;;3.00;;
64210;SDS011;50528;48.514;14.394;2023-08-01T01:28:26;6.10;;;3.00;;
64210;SDS011;50528;48.514;14.394;2023-08-01T01:29:02;4.70;;;2.90;;
64210;SDS011;50528;48.514;14.394;2023-08-01T01:29:37;7.00;;;2.70;;
64210;SDS011;50528;48.514;14.394;2023-08-01T01:30:12;5.00;;;2.80;;
64210;SDS011;50528;48.514;14.394;2023-08-01T01:30:46;4.50;;;2.60;;
64210;SDS011;50528;48.514;14.394;2023-08-01T01:31:21;6.70;;;3.00;;
64210;SDS011;50528;48.514;14.394;2023-08-01T01:31:55;7.70;;;3.00;;
64210;SDS011;50528;48.514;14.394;2023-08-01T01:32:31;5.70;;;2.70;;
64210;SDS011;50528;48.514;14.394;2023-08-01T01:33:05;4.40;;;2.60;;
64210;SDS011;50528;48.514;14.394;2023-08-01T01:33:40;6.40;;;2.70;;
64210;SDS011;50528;48.514;14.394;2023-08-01T01:34:13;4.10;;;2.80;;
64210;SDS011;50528;48.514;14.394;2023-08-01T01:34:47;7.00;;;2.70;;
64210;SDS011;50528;48.514;14.394;2023-08-01T01:35:20;5.40;;;2.70;;
64210;SDS011;50528;48.514;14.394;2023-08-01T01:35:54;3.60;;;2.40;;
64210;SDS011;50528;48.514;14.394;2023-08-01T01:36:27;6.40;;;2.70;;
64210;SDS011;50528;48.514;14.394;2023-08-01T01:37:02;6.30;;;2.90;;
64210;SDS011;50528;48.514;14.394;2023-08-01T01:37:36;4.40;;;2.70;;
64210;SDS011;50528;48.514;14.394;2023-08-01T01:38:09;5.10;;;2.70;;
64210;SDS011;50528;48.514;14.394;2023-08-01T01:38:43;4.80;;;2.80;;
64210;SDS011;50528;48.514;14.394;2023-08-01T01:39:16;4.70;;;2.60;;
64210;SDS011;50528;48.514;14.394;2023-08-01T01:39:50;4.60;;;2.70;;
64210;SDS011;50528;48.514;14.394;2023-08-01T01:40:24;5.00;;;2.80;;
64210;SDS011;50528;48.514;14.394;2023-08-01T01:40:57;5.20;;;2.70;;
64210;SDS011;50528;48.514;14.394;2023-08-01T01:41:31;4.40;;;3.00;;
64210;SDS011;50528;48.514;14.394;2023-08-01T01:42:05;4.60;;;2.80;;
64210;SDS011;50528;48.514;14.394;2023-08-01T01:42:38;5.00;;;3.00;;
64210;SDS011;50528;48.514;14.394;2023-08-01T01:43:12;6.70;;;3.00;;
64210;SDS011;50528;48.514;14.394;2023-08-01T01:43:45;6.50;;;2.90;;
64210;SDS011;50528;48.514;14.394;2023-08-01T01:44:19;4.30;;;2.80;;
64210;SDS011;50528;48.514;14.394;2023-08-01T01:44:52;4.90;;;3.00;;
64210;SDS011;50528;48.514;14.394;2023-08-01T01:45:26;5.30;;;3.20;;
64210;SDS011;50528;48.514;14.394;2023-08-01T01:46:00;4.10;;;2.80;;
64210;SDS011;50528;48.514;14.394;2023-08-01T01:46:33;3.90;;;2.90;;
64210;SDS011;50528;48.514;14.394;2023-08-01T01:47:06;5.00;;;2.80;;
64210;SDS011;50528;48.514;14.394;2023-08-01T01:47:40;5.90;;;3.10;;
64210;SDS011;50528;48.514;14.394;2023-08-01T01:48:13;5.70;;;3.00;;
64210;SDS011;50528;48.514;14.394;2023-08-01T01:48:46;4.00;;;2.70;;
64210;SDS011;50528;48.514;14.394;2023-08-01T01:51:15;4.50;;;3.20;;
64210;SDS011;50528;48.514;14.394;2023-08-01T01:51:52;5.80;;;3.30;;
64210;SDS011;50528;48.514;14.394;2023-08-01T01:52:25;5.20;;;3.30;;
64210;SDS011;50528;48.514;14.394;2023-08-01T01:52:59;5.60;;;3.10;;
64210;SDS011;50528;48.514;14.394;2023-08-01T01:53:32;4.80;;;3.10;;
64210;SDS011;50528;48.514;14.394;2023-08-01T01:54:06;7.10;;;3.20;;
64210;SDS011;50528;48.514;14.394;2023-08-01T01:54:39;5.30;;;3.10;;
64210;SDS011;50528;48.514;14.394;2023-08-01T01:55:13;6.10;;;3.30;;
64210;SDS011;50528;48.514;14.394;2023-08-01T01:55:47;5.50;;;3.20;;
64210;SDS011;50528;48.514;14.394;2023-08-01T01:56:20;5.30;;;3.40;;
64210;SDS011;50528;48.514;14.394;2023-08-01T01:56:54;6.10;;;3.20;;
64210;SDS011;50528;48.514;14.394;2023-08-01T01:57:27;5.00;;;3.00;;
64210;SDS011;50528;48.514;14.394;2023-08-01T01:58:01;5.70;;;3.20;;
64210;SDS011;50528;48.514;14.394;2023-08-01T01:58:37;5.30;;;3.10;;
64210;SDS011;50528;48.514;14.394;2023-08-01T01:59:10;5.70;;;3.20;;
64210;SDS011;50528;48.514;14.394;2023-08-01T01:59:44;4.30;;;3.20;;
64210;SDS011;50528;48.514;14.394;2023-08-01T02:00:17;7.20;;;3.10;;
64210;SDS011;50528;48.514;14.394;2023-08-01T02:00:50;6.40;;;3.40;;
64210;SDS011;50528;48.514;14.394;2023-08-01T02:01:24;6.40;;;3.30;;
64210;SDS011;50528;48.514;14.394;2023-08-01T02:01:57;5.30;;;3.20;;
64210;SDS011;50528;48.514;14.394;2023-08-01T02:02:30;6.00;;;3.40;;
64210;SDS011;50528;48.514;14.394;2023-08-01T02:03:04;5.60;;;3.20;;
64210;SDS011;50528;48.514;14.394;2023-08-01T02:03:40;7.20;;;3.00;;
64210;SDS011;50528;48.514;14.394;2023-08-01T02:04:13;6.20;;;3.50;;
64210;SDS011;50528;48.514;14.394;2023-08-01T02:04:47;6.80;;;3.40;;
64210;SDS011;50528;48.514;14.394;2023-08-01T02:05:22;10.10;;;3.50;;
64210;SDS011;50528;48.514;14.394;2023-08-01T02:05:56;5.80;;;3.20;;
64210;SDS011;50528;48.514;14.394;2023-08-01T02:06:29;4.40;;;3.00;;
64210;SDS011;50528;48.514;14.394;2023-08-01T02:07:03;6.00;;;3.20;;
64210;SDS011;50528;48.514;14.394;2023-08-01T02:07:36;5.00;;;3.10;;
64210;SDS011;50528;48.514;14.394;2023-08-01T02:08:10;7.30;;;3.10;;
64210;SDS011;50528;48.514;14.394;2023-08-01T02:08:43;5.60;;;3.20;;
64210;SDS011;50528;48.514;14.394;2023-08-01T02:09:17;4.60;;;3.30;;
64210;SDS011;50528;48.514;14.394;2023-08-01T02:09:50;5.20;;;3.00;;
64210;SDS011;50528;48.514;14.394;2023-08-01T02:10:54;5.20;;;3.10;;
64210;SDS011;50528;48.514;14.394;2023-08-01T02:11:30;6.50;;;3.20;;
64210;SDS011;50528;48.514;14.394;2023-08-01T02:12:04;6.70;;;3.10;;
64210;SDS011;50528;48.514;14.394;2023-08-01T02:12:37;4.50;;;3.10;;
64210;SDS011;50528;48.514;14.394;2023-08-01T02:13:11;6.50;;;3.20;;
64210;SDS011;50528;48.514;14.394;2023-08-01T02:13:44;5.80;;;3.20;;
64210;SDS011;50528;48.514;14.394;2023-08-01T02:14:17;5.00;;;3.30;;
64210;SDS011;50528;48.514;14.394;2023-08-01T02:14:50;7.00;;;3.30;;
64210;SDS011;50528;48.514;14.394;2023-08-01T02:15:24;5.20;;;3.30;;
64210;SDS011;50528;48.514;14.394;2023-08-01T02:15:57;7.40;;;3.60;;
64210;SDS011;50528;48.514;14.394;2023-08-01T02:16:31;6.80;;;3.40;;
64210;SDS011;50528;48.514;14.394;2023-08-01T02:17:04;6.50;;;3.10;;
64210;SDS011;50528;48.514;14.394;2023-08-01T02:17:38;5.50;;;3.40;;
64210;SDS011;50528;48.514;14.394;2023-08-01T02:18:12;4.60;;;3.10;;
64210;SDS011;50528;48.514;14.394;2023-08-01T02:18:45;4.90;;;3.30;;
64210;SDS011;50528;48.514;14.394;2023-08-01T02:19:18;5.70;;;3.30;;
64210;SDS011;50528;48.514;14.394;2023-08-01T02:19:51;6.30;;;3.00;;
64210;SDS011;50528;48.514;14.394;2023-08-01T02:20:25;4.70;;;3.20;;
64210;SDS011;50528;48.514;14.394;2023-08-01T02:20:59;6.40;;;3.20;;
64210;SDS011;50528;48.514;14.394;2023-08-01T02:21:33;5.20;;;3.40;;
64210;SDS011;50528;48.514;14.394;2023-08-01T02:22:06;5.60;;;3.30;;
64210;SDS011;50528;48.514;14.394;2023-08-01T02:22:40;4.90;;;3.20;;
64210;SDS011;50528;48.514;14.394;2023-08-01T02:23:13;6.80;;;3.50;;
64210;SDS011;50528;48.514;14.394;2023-08-01T02:23:48;7.00;;;3.30;;
64210;SDS011;50528;48.514;14.394;2023-08-01T02:24:22;5.80;;;3.20;;
64210;SDS011;50528;48.514;14.394;2023-08-01T02:24:55;6.30;;;3.50;;
64210;SDS011;50528;48.514;14.394;2023-08-01T02:25:28;5.40;;;3.40;;
64210;SDS011;50528;48.514;14.394;2023-08-01T02:26:01;4.90;;;3.20;;
64210;SDS011;50528;48.514;14.394;2023-08-01T02:26:35;5.80;;;3.50;;
64210;SDS011;50528;48.514;14.394;2023-08-01T02:27:08;5.10;;;3.10;;
64210;SDS011;50528;48.514;14.394;2023-08-01T02:27:41;7.50;;;3.40;;
64210;SDS011;50528;48.514;14.394;2023-08-01T02:28:14;6.30;;;3.10;;
64210;SDS011;50528;48.514;14.394;2023-08-01T02:28:48;5.20;;;3.40;;
64210;SDS011;50528;48.514;14.394;2023-08-01T02:29:21;7.00;;;3.20;;
64210;SDS011;50528;48.514;14.394;2023-08-01T02:29:54;6.20;;;3.20;;
64210;SDS011;50528;48.514;14.394;2023-08-01T02:30:28;5.10;;;3.10;;
64210;SDS011;50528;48.514;14.394;2023-08-01T02:31:02;6.10;;;3.30;;
64210;SDS011;50528;48.514;14.394;2023-08-01T02:31:35;6.10;;;3.20;;
64210;SDS011;50528;48.514;14.394;2023-08-01T02:32:08;5.00;;;3.40;;
64210;SDS011;50528;48.514;14.394;2023-08-01T02:32:42;6.20;;;3.40;;
64210;SDS011;50528;48.514;14.394;2023-08-01T02:33:15;6.20;;;3.50;;
64210;SDS011;50528;48.514;14.394;2023-08-01T02:33:48;6.40;;;3.30;;
64210;SDS011;50528;48.514;14.394;2023-08-01T02:34:22;5.40;;;3.40;;
64210;SDS011;50528;48.514;14.394;2023-08-01T02:34:56;5.10;;;3.10;;
64210;SDS011;50528;48.514;14.394;2023-08-01T02:35:29;6.10;;;3.00;;
64210;SDS011;50528;48.514;14.394;2023-08-01T02:36:02;5.50;;;3.20;;
64210;SDS011;50528;48.514;14.394;2023-08-01T02:36:36;6.10;;;3.30;;
64210;SDS011;50528;48.514;14.394;2023-08-01T02:37:09;7.20;;;3.20;;
64210;SDS011;50528;48.514;14.394;2023-08-01T02:37:43;6.10;;;3.10;;
64210;SDS011;50528;48.514;14.394;2023-08-01T02:38:16;6.30;;;3.50;;
64210;SDS011;50528;48.514;14.394;2023-08-01T02:38:49;7.60;;;3.10;;
64210;SDS011;50528;48.514;14.394;2023-08-01T02:39:23;4.80;;;3.10;;
64210;SDS011;50528;48.514;14.394;2023-08-01T02:39:56;4.90;;;3.50;;
64210;SDS011;50528;48.514;14.394;2023-08-01T02:40:29;7.20;;;3.40;;
64210;SDS011;50528;48.514;14.394;2023-08-01T02:41:02;5.50;;;3.30;;
64210;SDS011;50528;48.514;14.394;2023-08-01T02:41:36;7.30;;;3.40;;
64210;SDS011;50528;48.514;14.394;2023-08-01T02:42:09;6.20;;;3.60;;
64210;SDS011;50528;48.514;14.394;2023-08-01T02:42:42;5.30;;;3.40;;
64210;SDS011;50528;48.514;14.394;2023-08-01T02:43:15;5.40;;;3.10;;
64210;SDS011;50528;48.514;14.394;2023-08-01T02:43:50;4.20;;;3.00;;
64210;SDS011;50528;48.514;14.394;2023-08-01T02:44:24;6.10;;;3.20;;
64210;SDS011;50528;48.514;14.394;2023-08-01T02:44:57;8.20;;;3.30;;
64210;SDS011;50528;48.514;14.394;2023-08-01T02:45:31;5.00;;;3.20;;
64210;SDS011;50528;48.514;14.394;2023-08-01T02:46:04;6.70;;;3.30;;
64210;SDS011;50528;48.514;14.394;2023-08-01T02:46:38;5.00;;;3.20;;
64210;SDS011;50528;48.514;14.394;2023-08-01T02:47:12;5.90;;;3.40;;
64210;SDS011;50528;48.514;14.394;2023-08-01T02:47:45;5.50;;;3.30;;
64210;SDS011;50528;48.514;14.394;2023-08-01T02:48:19;5.60;;;3.30;;
64210;SDS011;50528;48.514;14.394;2023-08-01T02:48:52;6.40;;;3.30;;
64210;SDS011;50528;48.514;14.394;2023-08-01T02:49:25;5.40;;;3.50;;
64210;SDS011;50528;48.514;14.394;2023-08-01T02:49:58;5.30;;;3.20;;
64210;SDS011;50528;48.514;14.394;2023-08-01T02:50:31;6.20;;;3.10;;
64210;SDS011;50528;48.514;14.394;2023-08-01T02:51:05;7.20;;;3.00;;
64210;SDS011;50528;48.514;14.394;2023-08-01T02:51:42;5.40;;;3.00;;
64210;SDS011;50528;48.514;14.394;2023-08-01T02:52:15;5.20;;;2.90;;
64210;SDS011;50528;48.514;14.394;2023-08-01T02:52:48;8.30;;;3.30;;
64210;SDS011;50528;48.514;14.394;2023-08-01T02:53:21;5.30;;;3.00;;
64210;SDS011;50528;48.514;14.394;2023-08-01T02:53:54;5.70;;;3.10;;
64210;SDS011;50528;48.514;14.394;2023-08-01T02:54:28;6.50;;;3.20;;
64210;SDS011;50528;48.514;14.394;2023-08-01T02:55:01;4.00;;;2.90;;
64210;SDS011;50528;48.514;14.394;2023-08-01T02:55:34;5.00;;;3.00;;
64210;SDS011;50528;48.514;14.394;2023-08-01T02:56:08;4.90;;;2.80;;
64210;SDS011;50528;48.514;14.394;2023-08-01T02:56:43;5.30;;;3.40;;
64210;SDS011;50528;48.514;14.394;2023-08-01T02:57:16;6.00;;;3.20;;
64210;SDS011;50528;48.514;14.394;2023-08-01T02:57:49;7.60;;;3.00;;
64210;SDS011;50528;48.514;14.394;2023-08-01T02:58:23;5.60;;;3.30;;
64210;SDS011;50528;48.514;14.394;2023-08-01T02:58:56;6.00;;;3.30;;
64210;SDS011;50528;48.514;14.394;2023-08-01T02:59:30;5.70;;;3.20;;
64210;SDS011;50528;48.514;14.394;2023-08-01T03:00:06;5.70;;;3.00;;
64210;SDS011;50528;48.514;14.394;2023-08-01T03:00:44;5.40;;;3.10;;
64210;SDS011;50528;48.514;14.394;2023-08-01T03:01:17;5.70;;;3.10;;
64210;SDS011;50528;48.514;14.394;2023-08-01T03:01:51;4.90;;;3.00;;
64210;SDS011;50528;48.514;14.394;2023-08-01T03:02:25;5.70;;;3.10;;
64210;SDS011;50528;48.514;14.394;2023-08-01T03:02:59;7.50;;;3.00;;
64210;SDS011;50528;48.514;14.394;2023-08-01T03:03:33;6.30;;;3.00;;
64210;SDS011;50528;48.514;14.394;2023-08-01T03:04:08;8.10;;;3.10;;
64210;SDS011;50528;48.514;14.394;2023-08-01T03:04:44;5.80;;;3.30;;
64210;SDS011;50528;48.514;14.394;2023-08-01T03:05:19;5.60;;;3.10;;
64210;SDS011;50528;48.514;14.394;2023-08-01T03:05:52;5.10;;;3.30;;
64210;SDS011;50528;48.514;14.394;2023-08-01T03:06:26;5.20;;;2.90;;
64210;SDS011;50528;48.514;14.394;2023-08-01T03:06:59;5.50;;;3.20;;
64210;SDS011;50528;48.514;14.394;2023-08-01T03:07:32;7.20;;;3.20;;
64210;SDS011;50528;48.514;14.394;2023-08-01T03:08:06;5.70;;;2.80;;
64210;SDS011;50528;48.514;14.394;2023-08-01T03:08:40;4.80;;;3.00;;
64210;SDS011;50528;48.514;14.394;2023-08-01T03:09:13;5.30;;;2.90;;
64210;SDS011;50528;48.514;14.394;2023-08-01T03:09:46;4.80;;;3.00;;
64210;SDS011;50528;48.514;14.394;2023-08-01T03:10:20;4.80;;;2.90;;
64210;SDS011;50528;48.514;14.394;2023-08-01T03:11:08;6.30;;;3.10;;
64210;SDS011;50528;48.514;14.394;2023-08-01T03:11:42;5.30;;;3.20;;
64210;SDS011;50528;48.514;14.394;2023-08-01T03:12:15;5.00;;;3.10;;
64210;SDS011;50528;48.514;14.394;2023-08-01T03:12:48;6.70;;;3.20;;
64210;SDS011;50528;48.514;14.394;2023-08-01T03:13:22;5.30;;;3.00;;
64210;SDS011;50528;48.514;14.394;2023-08-01T03:13:55;5.90;;;3.30;;
64210;SDS011;50528;48.514;14.394;2023-08-01T03:14:28;5.00;;;2.90;;
64210;SDS011;50528;48.514;14.394;2023-08-01T03:15:01;6.10;;;3.00;;
64210;SDS011;50528;48.514;14.394;2023-08-01T03:15:35;4.40;;;2.90;;
64210;SDS011;50528;48.514;14.394;2023-08-01T03:16:08;8.20;;;3.00;;
64210;SDS011;50528;48.514;14.394;2023-08-01T03:16:43;5.80;;;3.30;;
64210;SDS011;50528;48.514;14.394;2023-08-01T03:17:16;5.50;;;3.00;;
64210;SDS011;50528;48.514;14.394;2023-08-01T03:17:49;6.30;;;3.30;;
64210;SDS011;50528;48.514;14.394;2023-08-01T03:18:23;5.70;;;3.20;;
64210;SDS011;50528;48.514;14.394;2023-08-01T03:18:56;4.80;;;3.10;;
64210;SDS011;50528;48.514;14.394;2023-08-01T03:19:29;5.40;;;3.10;;
64210;SDS011;50528;48.514;14.394;2023-08-01T03:20:03;6.50;;;2.90;;
64210;SDS011;50528;48.514;14.394;2023-08-01T03:20:36;6.30;;;3.20;;
64210;SDS011;50528;48.514;14.394;2023-08-01T03:21:10;4.90;;;2.90;;
64210;SDS011;50528;48.514;14.394;2023-08-01T03:21:43;4.40;;;2.90;;
64210;SDS011;50528;48.514;14.394;2023-08-01T03:22:17;4.40;;;2.80;;
64210;SDS011;50528;48.514;14.394;2023-08-01T03:22:50;7.50;;;3.30;;
64210;SDS011;50528;48.514;14.394;2023-08-01T03:23:24;4.90;;;3.10;;
64210;SDS011;50528;48.514;14.394;2023-08-01T03:23:58;6.70;;;3.10;;
64210;SDS011;50528;48.514;14.394;2023-08-01T03:24:31;5.10;;;3.10;;
64210;SDS011;50528;48.514;14.394;2023-08-01T03:25:06;6.20;;;3.10;;
64210;SDS011;50528;48.514;14.394;2023-08-01T03:25:42;4.40;;;3.00;;